sensor_id;sensor_type;location;lat;lon;timestamp;pressure;altitude;pressure_sealevel;temperature;humidity
75745;BME280;64359;51.366;-0.222;2023-09-08T00:00:17;101320.29;;;24.49;58.36
75745;BME280;64359;51.366;-0.222;2023-09-08T00:01:21;101323.56;;;24.50;58.25
75745;BME280;64359;51.366;-0.222;2023-09-08T00:02:26;101324.70;;;24.52;58.00
75745;BME280;64359;51.366;-0.222;2023-09-08T00:03:31;101325.88;;;24.52;58.21
75745;BME280;64359;51.366;-0.222;2023-09-08T00:04:35;101324.86;;;24.52;58.24
75745;BME280;64359;51.366;-0.222;2023-09-08T00:05:39;101327.88;;;24.50;58.20
75745;BME280;64359;51.366;-0.222;2023-09-08T00:06:44;101333.20;;;24.50;58.11
75745;BME280;64359;51.366;-0.222;2023-09-08T00:07:49;101332.48;;;24.50;57.98
75745;BME280;64359;51.366;-0.222;2023-09-08T00:08:53;101334.08;;;24.51;58.15
75745;BME280;64359;51.366;-0.222;2023-09-08T00:09:57;101335.67;;;24.49;58.03
75745;BME280;64359;51.366;-0.222;2023-09-08T00:11:02;101337.00;;;24.47;58.21
75745;BME280;64359;51.366;-0.222;2023-09-08T00:12:08;101336.72;;;24.44;58.12
75745;BME280;64359;51.366;-0.222;2023-09-08T00:13:12;101333.75;;;24.39;58.16
75745;BME280;64359;51.366;-0.222;2023-09-08T00:14:17;101334.56;;;24.37;58.18
75745;BME280;64359;51.366;-0.222;2023-09-08T00:15:21;101333.77;;;24.36;58.37
75745;BME280;64359;51.366;-0.222;2023-09-08T00:16:25;101336.20;;;24.34;58.29
75745;BME280;64359;51.366;-0.222;2023-09-08T00:17:32;101336.27;;;24.31;58.40
75745;BME280;64359;51.366;-0.222;2023-09-08T00:18:37;101331.22;;;24.29;58.51
75745;BME280;64359;51.366;-0.222;2023-09-08T00:19:41;101330.48;;;24.30;58.66
75745;BME280;64359;51.366;-0.222;2023-09-08T00:20:45;101329.08;;;24.31;58.54
75745;BME280;64359;51.366;-0.222;2023-09-08T00:21:50;101330.15;;;24.30;58.53
75745;BME280;64359;51.366;-0.222;2023-09-08T00:22:54;101331.13;;;24.28;58.43
75745;BME280;64359;51.366;-0.222;2023-09-08T00:23:58;101330.05;;;24.27;58.58
75745;BME280;64359;51.366;-0.222;2023-09-08T00:25:04;101331.59;;;24.26;58.60
75745;BME280;64359;51.366;-0.222;2023-09-08T00:26:09;101332.86;;;24.26;58.70
75745;BME280;64359;51.366;-0.222;2023-09-08T00:27:13;101331.52;;;24.26;58.61
75745;BME280;64359;51.366;-0.222;2023-09-08T00:28:17;101330.67;;;24.26;58.68
75745;BME280;64359;51.366;-0.222;2023-09-08T00:29:22;101333.36;;;24.25;58.73
75745;BME280;64359;51.366;-0.222;2023-09-08T00:30:26;101332.02;;;24.22;58.55
75745;BME280;64359;51.366;-0.222;2023-09-08T00:31:31;101334.95;;;24.19;58.61
75745;BME280;64359;51.366;-0.222;2023-09-08T00:32:36;101333.27;;;24.18;58.70
75745;BME280;64359;51.366;-0.222;2023-09-08T00:33:41;101333.52;;;24.18;58.73
75745;BME280;64359;51.366;-0.222;2023-09-08T00:34:47;101337.88;;;24.19;58.74
75745;BME280;64359;51.366;-0.222;2023-09-08T00:35:51;101332.10;;;24.21;59.03
75745;BME280;64359;51.366;-0.222;2023-09-08T00:36:56;101331.70;;;24.22;58.77
75745;BME280;64359;51.366;-0.222;2023-09-08T00:38:00;101331.77;;;24.25;58.83
75745;BME280;64359;51.366;-0.222;2023-09-08T00:39:05;101323.98;;;24.23;58.76
75745;BME280;64359;51.366;-0.222;2023-09-08T00:40:10;101329.50;;;24.25;58.71
75745;BME280;64359;51.366;-0.222;2023-09-08T00:41:14;101330.48;;;24.28;58.49
75745;BME280;64359;51.366;-0.222;2023-09-08T00:42:18;101328.91;;;24.29;58.65
75745;BME280;64359;51.366;-0.222;2023-09-08T00:43:23;101330.90;;;24.30;58.51
75745;BME280;64359;51.366;-0.222;2023-09-08T00:44:27;101329.77;;;24.30;58.32
75745;BME280;64359;51.366;-0.222;2023-09-08T00:45:31;101331.19;;;24.29;58.21
75745;BME280;64359;51.366;-0.222;2023-09-08T00:46:41;101331.40;;;24.29;58.24
75745;BME280;64359;51.366;-0.222;2023-09-08T00:47:45;101330.10;;;24.29;58.50
75745;BME280;64359;51.366;-0.222;2023-09-08T00:48:49;101332.35;;;24.29;58.10
75745;BME280;64359;51.366;-0.222;2023-09-08T00:49:54;101329.52;;;24.30;58.24
75745;BME280;64359;51.366;-0.222;2023-09-08T00:50:58;101329.69;;;24.30;58.19
75745;BME280;64359;51.366;-0.222;2023-09-08T00:52:04;101330.15;;;24.30;58.25
75745;BME280;64359;51.366;-0.222;2023-09-08T00:53:09;101333.17;;;24.28;57.92
75745;BME280;64359;51.366;-0.222;2023-09-08T00:54:14;101329.50;;;24.25;58.08
75745;BME280;64359;51.366;-0.222;2023-09-08T00:55:18;101330.90;;;24.23;58.13
75745;BME280;64359;51.366;-0.222;2023-09-08T00:56:23;101331.23;;;24.20;58.07
75745;BME280;64359;51.366;-0.222;2023-09-08T00:57:28;101332.42;;;24.18;58.30
75745;BME280;64359;51.366;-0.222;2023-09-08T00:58:32;101333.00;;;24.16;58.38
75745;BME280;64359;51.366;-0.222;2023-09-08T00:59:37;101332.85;;;24.15;58.38
75745;BME280;64359;51.366;-0.222;2023-09-08T01:00:41;101333.27;;;24.11;58.31
75745;BME280;64359;51.366;-0.222;2023-09-08T01:01:46;101333.61;;;24.09;58.28
75745;BME280;64359;51.366;-0.222;2023-09-08T01:02:50;101332.17;;;24.07;58.52
75745;BME280;64359;51.366;-0.222;2023-09-08T01:03:55;101334.77;;;24.07;58.41
75745;BME280;64359;51.366;-0.222;2023-09-08T01:04:59;101333.92;;;24.05;58.27
75745;BME280;64359;51.366;-0.222;2023-09-08T01:06:04;101334.71;;;24.04;58.51
75745;BME280;64359;51.366;-0.222;2023-09-08T01:07:10;101330.19;;;24.03;58.68
75745;BME280;64359;51.366;-0.222;2023-09-08T01:08:15;101332.56;;;24.03;58.49
75745;BME280;64359;51.366;-0.222;2023-09-08T01:09:20;101330.58;;;24.00;58.37
75745;BME280;64359;51.366;-0.222;2023-09-08T01:10:25;101329.53;;;24.00;58.45
75745;BME280;64359;51.366;-0.222;2023-09-08T01:11:29;101329.96;;;23.98;58.57
75745;BME280;64359;51.366;-0.222;2023-09-08T01:12:34;101332.98;;;23.97;58.66
75745;BME280;64359;51.366;-0.222;2023-09-08T01:13:39;101333.89;;;23.96;58.64
75745;BME280;64359;51.366;-0.222;2023-09-08T01:14:43;101331.56;;;23.97;58.73
75745;BME280;64359;51.366;-0.222;2023-09-08T01:15:47;101329.55;;;23.98;58.73
75745;BME280;64359;51.366;-0.222;2023-09-08T01:16:52;101329.81;;;23.99;58.80
75745;BME280;64359;51.366;-0.222;2023-09-08T01:17:56;101327.73;;;24.01;58.69
75745;BME280;64359;51.366;-0.222;2023-09-08T01:19:00;101323.31;;;24.03;58.72
75745;BME280;64359;51.366;-0.222;2023-09-08T01:20:10;101327.89;;;24.04;58.67
75745;BME280;64359;51.366;-0.222;2023-09-08T01:21:48;101322.33;;;24.05;58.72
75745;BME280;64359;51.366;-0.222;2023-09-08T01:23:17;101318.90;;;24.06;58.56
75745;BME280;64359;51.366;-0.222;2023-09-08T01:24:36;101320.20;;;24.07;58.53
75745;BME280;64359;51.366;-0.222;2023-09-08T01:25:45;101315.26;;;24.06;58.56
75745;BME280;64359;51.366;-0.222;2023-09-08T01:26:52;101311.95;;;24.01;58.36
75745;BME280;64359;51.366;-0.222;2023-09-08T01:27:59;101311.98;;;23.98;58.54
75745;BME280;64359;51.366;-0.222;2023-09-08T01:29:06;101311.40;;;23.95;58.45
75745;BME280;64359;51.366;-0.222;2023-09-08T01:30:11;101313.24;;;23.94;58.79
75745;BME280;64359;51.366;-0.222;2023-09-08T01:31:17;101312.63;;;23.92;58.72
75745;BME280;64359;51.366;-0.222;2023-09-08T01:32:21;101313.88;;;23.90;58.86
75745;BME280;64359;51.366;-0.222;2023-09-08T01:33:26;101312.08;;;23.88;58.85
75745;BME280;64359;51.366;-0.222;2023-09-08T01:34:31;101309.13;;;23.87;58.78
75745;BME280;64359;51.366;-0.222;2023-09-08T01:35:36;101307.14;;;23.84;58.63
75745;BME280;64359;51.366;-0.222;2023-09-08T01:36:41;101311.96;;;23.85;58.94
75745;BME280;64359;51.366;-0.222;2023-09-08T01:37:47;101309.90;;;23.83;58.99
75745;BME280;64359;51.366;-0.222;2023-09-08T01:38:52;101313.96;;;23.83;59.08
75745;BME280;64359;51.366;-0.222;2023-09-08T01:39:56;101312.34;;;23.85;58.99
75745;BME280;64359;51.366;-0.222;2023-09-08T01:41:01;101313.25;;;23.85;58.90
75745;BME280;64359;51.366;-0.222;2023-09-08T01:42:06;101314.33;;;23.86;58.94
75745;BME280;64359;51.366;-0.222;2023-09-08T01:43:10;101314.29;;;23.88;58.84
75745;BME280;64359;51.366;-0.222;2023-09-08T01:44:14;101315.06;;;23.89;58.58
75745;BME280;64359;51.366;-0.222;2023-09-08T01:45:19;101316.11;;;23.89;58.64
75745;BME280;64359;51.366;-0.222;2023-09-08T01:46:23;101315.39;;;23.91;58.54
75745;BME280;64359;51.366;-0.222;2023-09-08T01:47:29;101314.48;;;23.93;58.74
75745;BME280;64359;51.366;-0.222;2023-09-08T01:48:33;101310.59;;;23.93;58.49
75745;BME280;64359;51.366;-0.222;2023-09-08T01:49:38;101311.34;;;23.93;58.48
75745;BME280;64359;51.366;-0.222;2023-09-08T01:50:42;101312.42;;;23.88;58.42
75745;BME280;64359;51.366;-0.222;2023-09-08T01:51:46;101310.96;;;23.85;58.47
75745;BME280;64359;51.366;-0.222;2023-09-08T01:52:51;101314.83;;;23.86;58.67
75745;BME280;64359;51.366;-0.222;2023-09-08T01:53:55;101314.66;;;23.86;58.72
75745;BME280;64359;51.366;-0.222;2023-09-08T01:54:59;101317.27;;;23.89;58.61
75745;BME280;64359;51.366;-0.222;2023-09-08T01:56:04;101321.66;;;23.90;58.68
75745;BME280;64359;51.366;-0.222;2023-09-08T01:57:09;101320.11;;;23.91;58.68
75745;BME280;64359;51.366;-0.222;2023-09-08T01:58:13;101319.02;;;23.91;58.73
75745;BME280;64359;51.366;-0.222;2023-09-08T01:59:17;101320.70;;;23.91;58.58
75745;BME280;64359;51.366;-0.222;2023-09-08T02:00:22;101318.54;;;23.89;58.49
75745;BME280;64359;51.366;-0.222;2023-09-08T02:01:26;101317.71;;;23.87;58.68
75745;BME280;64359;51.366;-0.222;2023-09-08T02:02:30;101316.02;;;23.83;58.74
75745;BME280;64359;51.366;-0.222;2023-09-08T02:03:34;101320.59;;;23.84;58.68
75745;BME280;64359;51.366;-0.222;2023-09-08T02:04:39;101320.21;;;23.84;58.67
75745;BME280;64359;51.366;-0.222;2023-09-08T02:05:43;101317.73;;;23.85;58.77
75745;BME280;64359;51.366;-0.222;2023-09-08T02:06:48;101316.61;;;23.85;58.71
75745;BME280;64359;51.366;-0.222;2023-09-08T02:07:52;101315.27;;;23.84;59.04
75745;BME280;64359;51.366;-0.222;2023-09-08T02:08:58;101313.67;;;23.84;58.80
75745;BME280;64359;51.366;-0.222;2023-09-08T02:10:03;101311.16;;;23.84;58.93
75745;BME280;64359;51.366;-0.222;2023-09-08T02:11:07;101314.66;;;23.86;59.01
75745;BME280;64359;51.366;-0.222;2023-09-08T02:12:12;101313.88;;;23.88;58.81
75745;BME280;64359;51.366;-0.222;2023-09-08T02:13:16;101313.11;;;23.90;58.64
75745;BME280;64359;51.366;-0.222;2023-09-08T02:14:20;101311.30;;;23.92;58.50
75745;BME280;64359;51.366;-0.222;2023-09-08T02:15:25;101308.88;;;23.94;58.39
75745;BME280;64359;51.366;-0.222;2023-09-08T02:16:29;101308.26;;;23.95;58.44
75745;BME280;64359;51.366;-0.222;2023-09-08T02:17:34;101303.61;;;23.94;58.34
75745;BME280;64359;51.366;-0.222;2023-09-08T02:18:38;101298.70;;;23.94;58.53
75745;BME280;64359;51.366;-0.222;2023-09-08T02:19:42;101299.05;;;23.94;58.42
75745;BME280;64359;51.366;-0.222;2023-09-08T02:20:47;101298.30;;;23.94;58.24
75745;BME280;64359;51.366;-0.222;2023-09-08T02:21:51;101298.52;;;23.96;58.40
75745;BME280;64359;51.366;-0.222;2023-09-08T02:22:56;101299.19;;;23.96;58.43
75745;BME280;64359;51.366;-0.222;2023-09-08T02:24:00;101300.61;;;23.96;58.28
75745;BME280;64359;51.366;-0.222;2023-09-08T02:25:05;101299.86;;;23.96;58.23
75745;BME280;64359;51.366;-0.222;2023-09-08T02:26:10;101300.55;;;23.95;58.18
75745;BME280;64359;51.366;-0.222;2023-09-08T02:27:14;101298.30;;;23.94;58.19
75745;BME280;64359;51.366;-0.222;2023-09-08T02:28:19;101303.90;;;23.94;58.19
75745;BME280;64359;51.366;-0.222;2023-09-08T02:29:23;101300.98;;;23.95;58.24
75745;BME280;64359;51.366;-0.222;2023-09-08T02:30:28;101302.44;;;23.95;58.20
75745;BME280;64359;51.366;-0.222;2023-09-08T02:31:32;101300.09;;;23.95;58.29
75745;BME280;64359;51.366;-0.222;2023-09-08T02:32:36;101300.42;;;23.93;58.16
75745;BME280;64359;51.366;-0.222;2023-09-08T02:33:41;101300.28;;;23.92;58.19
75745;BME280;64359;51.366;-0.222;2023-09-08T02:34:45;101297.20;;;23.90;58.23
75745;BME280;64359;51.366;-0.222;2023-09-08T02:35:51;101299.64;;;23.91;58.28
75745;BME280;64359;51.366;-0.222;2023-09-08T02:36:56;101298.70;;;23.89;58.25
75745;BME280;64359;51.366;-0.222;2023-09-08T02:38:00;101300.05;;;23.88;58.30
75745;BME280;64359;51.366;-0.222;2023-09-08T02:39:05;101296.33;;;23.88;58.34
75745;BME280;64359;51.366;-0.222;2023-09-08T02:40:11;101301.02;;;23.88;58.46
75745;BME280;64359;51.366;-0.222;2023-09-08T02:41:15;101301.02;;;23.87;58.26
75745;BME280;64359;51.366;-0.222;2023-09-08T02:42:19;101299.58;;;23.84;58.23
75745;BME280;64359;51.366;-0.222;2023-09-08T02:43:24;101300.05;;;23.81;58.38
75745;BME280;64359;51.366;-0.222;2023-09-08T02:44:29;101300.77;;;23.82;58.44
75745;BME280;64359;51.366;-0.222;2023-09-08T02:45:34;101301.22;;;23.81;58.35
75745;BME280;64359;51.366;-0.222;2023-09-08T02:46:38;101302.42;;;23.81;58.30
75745;BME280;64359;51.366;-0.222;2023-09-08T02:47:42;101303.66;;;23.82;58.33
75745;BME280;64359;51.366;-0.222;2023-09-08T02:48:47;101305.23;;;23.82;58.28
75745;BME280;64359;51.366;-0.222;2023-09-08T02:49:51;101302.48;;;23.82;58.48
75745;BME280;64359;51.366;-0.222;2023-09-08T02:50:55;101304.15;;;23.82;58.23
75745;BME280;64359;51.366;-0.222;2023-09-08T02:52:04;101306.77;;;23.83;58.28
75745;BME280;64359;51.366;-0.222;2023-09-08T02:53:10;101306.04;;;23.82;58.22
75745;BME280;64359;51.366;-0.222;2023-09-08T02:54:14;101308.02;;;23.79;58.14
75745;BME280;64359;51.366;-0.222;2023-09-08T02:55:19;101308.73;;;23.75;58.18
75745;BME280;64359;51.366;-0.222;2023-09-08T02:56:23;101303.36;;;23.72;58.28
75745;BME280;64359;51.366;-0.222;2023-09-08T02:57:28;101300.97;;;23.68;58.22
75745;BME280;64359;51.366;-0.222;2023-09-08T02:58:32;101296.80;;;23.66;58.35
75745;BME280;64359;51.366;-0.222;2023-09-08T02:59:37;101296.18;;;23.67;58.56
75745;BME280;64359;51.366;-0.222;2023-09-08T03:00:41;101296.70;;;23.67;58.63
75745;BME280;64359;51.366;-0.222;2023-09-08T03:01:46;101295.58;;;23.66;58.30
75745;BME280;64359;51.366;-0.222;2023-09-08T03:02:50;101293.86;;;23.62;58.44
75745;BME280;64359;51.366;-0.222;2023-09-08T03:03:55;101292.30;;;23.56;58.46
75745;BME280;64359;51.366;-0.222;2023-09-08T03:04:59;101296.77;;;23.56;58.64
75745;BME280;64359;51.366;-0.222;2023-09-08T03:06:04;101299.77;;;23.54;58.59
75745;BME280;64359;51.366;-0.222;2023-09-08T03:07:09;101297.34;;;23.52;58.83
75745;BME280;64359;51.366;-0.222;2023-09-08T03:08:13;101295.98;;;23.51;58.89
75745;BME280;64359;51.366;-0.222;2023-09-08T03:09:17;101293.05;;;23.51;58.96
75745;BME280;64359;51.366;-0.222;2023-09-08T03:10:22;101287.25;;;23.52;59.03
75745;BME280;64359;51.366;-0.222;2023-09-08T03:11:26;101288.27;;;23.53;58.70
75745;BME280;64359;51.366;-0.222;2023-09-08T03:12:31;101285.48;;;23.51;58.88
75745;BME280;64359;51.366;-0.222;2023-09-08T03:13:36;101287.07;;;23.50;59.03
75745;BME280;64359;51.366;-0.222;2023-09-08T03:14:40;101289.04;;;23.51;59.12
75745;BME280;64359;51.366;-0.222;2023-09-08T03:15:45;101288.89;;;23.52;59.05
75745;BME280;64359;51.366;-0.222;2023-09-08T03:16:49;101295.05;;;23.54;59.00
75745;BME280;64359;51.366;-0.222;2023-09-08T03:17:53;101295.89;;;23.56;58.98
75745;BME280;64359;51.366;-0.222;2023-09-08T03:18:58;101301.10;;;23.58;58.93
75745;BME280;64359;51.366;-0.222;2023-09-08T03:20:02;101297.02;;;23.58;58.60
75745;BME280;64359;51.366;-0.222;2023-09-08T03:21:13;101298.31;;;23.60;58.80
75745;BME280;64359;51.366;-0.222;2023-09-08T03:22:17;101295.88;;;23.58;58.59
75745;BME280;64359;51.366;-0.222;2023-09-08T03:23:22;101293.66;;;23.53;58.50
75745;BME280;64359;51.366;-0.222;2023-09-08T03:24:26;101291.13;;;23.50;58.64
75745;BME280;64359;51.366;-0.222;2023-09-08T03:25:31;101291.35;;;23.47;58.66
75745;BME280;64359;51.366;-0.222;2023-09-08T03:26:35;101293.23;;;23.46;58.72
75745;BME280;64359;51.366;-0.222;2023-09-08T03:27:39;101289.69;;;23.42;58.66
75745;BME280;64359;51.366;-0.222;2023-09-08T03:28:43;101291.30;;;23.41;58.69
75745;BME280;64359;51.366;-0.222;2023-09-08T03:29:48;101292.41;;;23.39;58.77
75745;BME280;64359;51.366;-0.222;2023-09-08T03:30:52;101291.69;;;23.38;58.89
75745;BME280;64359;51.366;-0.222;2023-09-08T03:31:56;101290.33;;;23.37;58.86
75745;BME280;64359;51.366;-0.222;2023-09-08T03:33:01;101289.73;;;23.36;58.83
75745;BME280;64359;51.366;-0.222;2023-09-08T03:34:05;101291.60;;;23.34;58.85
75745;BME280;64359;51.366;-0.222;2023-09-08T03:35:10;101291.44;;;23.34;58.98
75745;BME280;64359;51.366;-0.222;2023-09-08T03:36:15;101294.70;;;23.34;59.15
75745;BME280;64359;51.366;-0.222;2023-09-08T03:37:19;101284.43;;;23.29;59.04
75745;BME280;64359;51.366;-0.222;2023-09-08T03:38:24;101292.03;;;23.35;59.10
75745;BME280;64359;51.366;-0.222;2023-09-08T03:39:28;101291.28;;;23.35;58.99
75745;BME280;64359;51.366;-0.222;2023-09-08T03:40:32;101291.30;;;23.33;58.70
75745;BME280;64359;51.366;-0.222;2023-09-08T03:41:37;101286.37;;;23.34;59.03
75745;BME280;64359;51.366;-0.222;2023-09-08T03:42:41;101282.77;;;23.34;59.04
75745;BME280;64359;51.366;-0.222;2023-09-08T03:43:45;101281.55;;;23.33;59.04
75745;BME280;64359;51.366;-0.222;2023-09-08T03:44:52;101286.23;;;23.33;59.12
75745;BME280;64359;51.366;-0.222;2023-09-08T03:45:57;101283.94;;;23.33;59.00
75745;BME280;64359;51.366;-0.222;2023-09-08T03:47:02;101284.65;;;23.33;58.93
75745;BME280;64359;51.366;-0.222;2023-09-08T03:48:07;101288.41;;;23.33;59.03
75745;BME280;64359;51.366;-0.222;2023-09-08T03:49:12;101285.48;;;23.34;59.01
75745;BME280;64359;51.366;-0.222;2023-09-08T03:50:17;101284.92;;;23.31;58.90
75745;BME280;64359;51.366;-0.222;2023-09-08T03:51:21;101282.06;;;23.29;58.92
75745;BME280;64359;51.366;-0.222;2023-09-08T03:52:26;101278.27;;;23.32;59.21
75745;BME280;64359;51.366;-0.222;2023-09-08T03:53:30;101278.14;;;23.34;59.39
75745;BME280;64359;51.366;-0.222;2023-09-08T03:54:35;101277.87;;;23.36;59.00
75745;BME280;64359;51.366;-0.222;2023-09-08T03:55:40;101277.14;;;23.38;58.85
75745;BME280;64359;51.366;-0.222;2023-09-08T03:56:44;101280.47;;;23.37;58.64
75745;BME280;64359;51.366;-0.222;2023-09-08T03:57:49;101283.36;;;23.37;58.76
75745;BME280;64359;51.366;-0.222;2023-09-08T03:58:53;101281.43;;;23.37;58.56
75745;BME280;64359;51.366;-0.222;2023-09-08T03:59:58;101283.27;;;23.37;58.55
75745;BME280;64359;51.366;-0.222;2023-09-08T04:01:02;101285.83;;;23.38;58.66
75745;BME280;64359;51.366;-0.222;2023-09-08T04:02:07;101283.45;;;23.38;58.85
75745;BME280;64359;51.366;-0.222;2023-09-08T04:03:11;101283.50;;;23.39;58.73
75745;BME280;64359;51.366;-0.222;2023-09-08T04:04:15;101289.65;;;23.39;58.46
75745;BME280;64359;51.366;-0.222;2023-09-08T04:05:21;101287.26;;;23.38;58.43
75745;BME280;64359;51.366;-0.222;2023-09-08T04:06:25;101290.30;;;23.37;58.30
75745;BME280;64359;51.366;-0.222;2023-09-08T04:07:31;101290.39;;;23.38;58.35
75745;BME280;64359;51.366;-0.222;2023-09-08T04:08:35;101292.81;;;23.38;58.54
75745;BME280;64359;51.366;-0.222;2023-09-08T04:09:39;101292.14;;;23.38;58.09
75745;BME280;64359;51.366;-0.222;2023-09-08T04:10:44;101286.95;;;23.38;58.12
75745;BME280;64359;51.366;-0.222;2023-09-08T04:11:48;101289.80;;;23.38;58.17
75745;BME280;64359;51.366;-0.222;2023-09-08T04:12:52;101289.45;;;23.36;57.99
75745;BME280;64359;51.366;-0.222;2023-09-08T04:13:57;101294.56;;;23.34;57.91
75745;BME280;64359;51.366;-0.222;2023-09-08T04:15:01;101292.98;;;23.32;58.02
75745;BME280;64359;51.366;-0.222;2023-09-08T04:16:06;101293.96;;;23.31;58.25
75745;BME280;64359;51.366;-0.222;2023-09-08T04:17:10;101291.86;;;23.31;57.86
75745;BME280;64359;51.366;-0.222;2023-09-08T04:18:14;101291.44;;;23.31;58.17
75745;BME280;64359;51.366;-0.222;2023-09-08T04:19:19;101285.14;;;23.31;57.83
75745;BME280;64359;51.366;-0.222;2023-09-08T04:20:23;101281.54;;;23.32;57.80
75745;BME280;64359;51.366;-0.222;2023-09-08T04:21:27;101282.52;;;23.34;58.03
75745;BME280;64359;51.366;-0.222;2023-09-08T04:22:32;101283.37;;;23.34;57.48
75745;BME280;64359;51.366;-0.222;2023-09-08T04:23:36;101285.94;;;23.36;57.71
75745;BME280;64359;51.366;-0.222;2023-09-08T04:24:40;101284.61;;;23.36;57.92
75745;BME280;64359;51.366;-0.222;2023-09-08T04:25:45;101285.78;;;23.37;57.82
75745;BME280;64359;51.366;-0.222;2023-09-08T04:26:49;101282.80;;;23.37;58.07
75745;BME280;64359;51.366;-0.222;2023-09-08T04:27:54;101283.61;;;23.38;58.01
75745;BME280;64359;51.366;-0.222;2023-09-08T04:28:58;101285.84;;;23.38;57.86
75745;BME280;64359;51.366;-0.222;2023-09-08T04:30:02;101286.77;;;23.39;57.92
75745;BME280;64359;51.366;-0.222;2023-09-08T04:31:07;101287.98;;;23.40;57.89
75745;BME280;64359;51.366;-0.222;2023-09-08T04:32:11;101290.88;;;23.40;57.81
75745;BME280;64359;51.366;-0.222;2023-09-08T04:33:15;101288.69;;;23.39;57.88
75745;BME280;64359;51.366;-0.222;2023-09-08T04:34:20;101288.19;;;23.39;57.77
75745;BME280;64359;51.366;-0.222;2023-09-08T04:35:24;101289.02;;;23.40;57.73
75745;BME280;64359;51.366;-0.222;2023-09-08T04:36:28;101284.73;;;23.36;57.77
75745;BME280;64359;51.366;-0.222;2023-09-08T04:37:33;101291.58;;;23.40;57.99
75745;BME280;64359;51.366;-0.222;2023-09-08T04:38:37;101292.88;;;23.40;58.11
75745;BME280;64359;51.366;-0.222;2023-09-08T04:39:42;101286.46;;;23.39;57.80
75745;BME280;64359;51.366;-0.222;2023-09-08T04:40:47;101290.33;;;23.40;57.83
75745;BME280;64359;51.366;-0.222;2023-09-08T04:41:52;101291.23;;;23.39;57.86
75745;BME280;64359;51.366;-0.222;2023-09-08T04:42:56;101289.58;;;23.40;57.76
75745;BME280;64359;51.366;-0.222;2023-09-08T04:44:00;101293.34;;;23.40;57.55
75745;BME280;64359;51.366;-0.222;2023-09-08T04:45:06;101296.63;;;23.38;57.32
75745;BME280;64359;51.366;-0.222;2023-09-08T04:46:10;101296.39;;;23.36;57.12
75745;BME280;64359;51.366;-0.222;2023-09-08T04:47:15;101298.63;;;23.34;57.38
75745;BME280;64359;51.366;-0.222;2023-09-08T04:48:19;101305.94;;;23.32;57.50
75745;BME280;64359;51.366;-0.222;2023-09-08T04:49:23;101304.02;;;23.30;57.41
75745;BME280;64359;51.366;-0.222;2023-09-08T04:50:28;101301.55;;;23.28;57.62
75745;BME280;64359;51.366;-0.222;2023-09-08T04:51:32;101300.87;;;23.27;57.79
75745;BME280;64359;51.366;-0.222;2023-09-08T04:52:36;101301.81;;;23.26;57.73
75745;BME280;64359;51.366;-0.222;2023-09-08T04:53:41;101302.83;;;23.26;58.02
75745;BME280;64359;51.366;-0.222;2023-09-08T04:54:45;101302.64;;;23.25;57.72
75745;BME280;64359;51.366;-0.222;2023-09-08T04:55:49;101305.48;;;23.24;57.62
75745;BME280;64359;51.366;-0.222;2023-09-08T04:56:54;101309.94;;;23.23;57.50
75745;BME280;64359;51.366;-0.222;2023-09-08T04:57:58;101307.40;;;23.23;58.02
75745;BME280;64359;51.366;-0.222;2023-09-08T04:59:03;101309.21;;;23.22;57.78
75745;BME280;64359;51.366;-0.222;2023-09-08T05:00:09;101306.83;;;23.21;57.88
75745;BME280;64359;51.366;-0.222;2023-09-08T05:01:14;101308.77;;;23.19;57.93
75745;BME280;64359;51.366;-0.222;2023-09-08T05:02:19;101309.13;;;23.18;58.01
75745;BME280;64359;51.366;-0.222;2023-09-08T05:03:23;101310.10;;;23.17;58.22
75745;BME280;64359;51.366;-0.222;2023-09-08T05:04:29;101309.97;;;23.19;58.21
75745;BME280;64359;51.366;-0.222;2023-09-08T05:05:33;101312.45;;;23.19;58.42
75745;BME280;64359;51.366;-0.222;2023-09-08T05:06:37;101312.62;;;23.19;58.19
75745;BME280;64359;51.366;-0.222;2023-09-08T05:07:42;101315.17;;;23.18;58.13
75745;BME280;64359;51.366;-0.222;2023-09-08T05:08:46;101316.38;;;23.15;58.24
75745;BME280;64359;51.366;-0.222;2023-09-08T05:09:50;101318.31;;;23.12;58.24
75745;BME280;64359;51.366;-0.222;2023-09-08T05:10:55;101319.63;;;23.09;58.37
75745;BME280;64359;51.366;-0.222;2023-09-08T05:11:59;101320.30;;;23.06;58.28
75745;BME280;64359;51.366;-0.222;2023-09-08T05:13:03;101318.64;;;23.05;58.77
75745;BME280;64359;51.366;-0.222;2023-09-08T05:14:08;101322.43;;;23.03;58.55
75745;BME280;64359;51.366;-0.222;2023-09-08T05:15:12;101320.69;;;23.04;58.72
75745;BME280;64359;51.366;-0.222;2023-09-08T05:16:18;101321.14;;;23.06;58.84
75745;BME280;64359;51.366;-0.222;2023-09-08T05:17:29;101320.88;;;23.06;58.58
75745;BME280;64359;51.366;-0.222;2023-09-08T05:18:33;101327.29;;;23.03;58.76
75745;BME280;64359;51.366;-0.222;2023-09-08T05:19:38;101324.76;;;23.02;58.72
75745;BME280;64359;51.366;-0.222;2023-09-08T05:20:42;101324.90;;;23.00;58.63
75745;BME280;64359;51.366;-0.222;2023-09-08T05:21:46;101324.73;;;22.95;58.71
75745;BME280;64359;51.366;-0.222;2023-09-08T05:22:51;101324.92;;;22.93;58.80
75745;BME280;64359;51.366;-0.222;2023-09-08T05:23:55;101326.63;;;22.92;58.85
75745;BME280;64359;51.366;-0.222;2023-09-08T05:24:59;101329.34;;;22.92;58.87
75745;BME280;64359;51.366;-0.222;2023-09-08T05:26:04;101324.08;;;22.90;58.68
75745;BME280;64359;51.366;-0.222;2023-09-08T05:27:08;101334.96;;;22.91;58.69
75745;BME280;64359;51.366;-0.222;2023-09-08T05:28:13;101338.75;;;22.90;58.75
75745;BME280;64359;51.366;-0.222;2023-09-08T05:29:17;101336.64;;;22.88;58.80
75745;BME280;64359;51.366;-0.222;2023-09-08T05:30:21;101338.55;;;22.87;58.99
75745;BME280;64359;51.366;-0.222;2023-09-08T05:31:26;101339.66;;;22.85;58.89
75745;BME280;64359;51.366;-0.222;2023-09-08T05:32:30;101333.53;;;22.84;59.17
75745;BME280;64359;51.366;-0.222;2023-09-08T05:33:34;101336.85;;;22.85;58.81
75745;BME280;64359;51.366;-0.222;2023-09-08T05:34:39;101335.97;;;22.84;58.99